createdAt,value
2023-04-30T00:01:30.025Z,19.02
2023-04-30T00:03:56.964Z,17.08
2023-04-30T00:06:24.181Z,16.77
2023-04-30T00:08:51.806Z,17.65
2023-04-30T00:11:18.529Z,18.08
2023-04-30T00:13:45.245Z,18.27
2023-04-30T00:16:12.008Z,21.65
2023-04-30T00:18:39.213Z,18.05
2023-04-30T00:21:05.980Z,17.42
2023-04-30T00:23:32.561Z,21.10
2023-04-30T00:25:59.184Z,18.13
2023-04-30T00:28:26.020Z,16.77
2023-04-30T00:30:52.937Z,15.95
2023-04-30T00:33:19.931Z,18.42
2023-04-30T00:35:47.287Z,16.15
2023-04-30T00:38:13.955Z,13.57
2023-04-30T00:40:42.359Z,12.25
2023-04-30T00:43:09.161Z,9.07
2023-04-30T00:45:35.852Z,10.77
2023-04-30T00:48:02.930Z,10.77
2023-04-30T00:50:29.820Z,10.98
2023-04-30T00:52:57.281Z,11.23
2023-04-30T00:55:23.980Z,8.27
2023-04-30T00:57:51.273Z,9.55
2023-04-30T01:00:18.229Z,9.13
2023-04-30T01:02:45.050Z,7.82
2023-04-30T01:05:12.531Z,8.07
2023-04-30T01:07:45.178Z,11.40
2023-04-30T01:10:16.416Z,9.95
2023-04-30T01:13:12.852Z,8.95
2023-04-30T01:16:03.025Z,9.75
2023-04-30T01:18:35.277Z,10.23
2023-04-30T01:21:05.262Z,9.98
2023-04-30T01:23:59.313Z,9.95
2023-04-30T01:27:13.703Z,9.88
2023-04-30T01:29:42.832Z,9.63
2023-04-30T01:32:11.430Z,11.52
2023-04-30T01:34:38.308Z,10.13
2023-04-30T01:37:15.625Z,11.60
2023-04-30T01:39:54.313Z,8.07
2023-04-30T01:42:27.958Z,9.82
2023-04-30T01:45:25.841Z,10.43
2023-04-30T01:48:13.485Z,8.10
2023-04-30T01:50:49.562Z,11.05
2023-04-30T01:53:24.637Z,9.20
2023-04-30T01:55:58.810Z,11.88
2023-04-30T01:58:26.792Z,9.77
2023-04-30T02:00:53.607Z,13.57
2023-04-30T02:03:20.474Z,11.88
2023-04-30T02:05:47.848Z,13.95
2023-04-30T02:08:14.673Z,13.77
2023-04-30T02:10:41.271Z,11.80
2023-04-30T02:13:07.881Z,15.85
2023-04-30T02:15:34.528Z,18.95
2023-04-30T02:18:01.220Z,15.65
2023-04-30T02:20:27.929Z,13.90
2023-04-30T02:22:54.563Z,15.38
2023-04-30T02:25:21.183Z,18.50
2023-04-30T02:27:48.003Z,13.32
2023-04-30T02:30:14.672Z,17.15
2023-04-30T02:32:41.372Z,14.07
2023-04-30T02:35:08.451Z,13.82
2023-04-30T02:37:35.202Z,14.88
2023-04-30T02:40:01.842Z,13.60
2023-04-30T02:42:28.639Z,12.10
2023-04-30T02:44:55.333Z,14.55
2023-04-30T02:47:21.967Z,12.80
2023-04-30T02:49:48.577Z,11.23
2023-04-30T02:52:15.202Z,11.27
2023-04-30T02:54:42.850Z,11.68
2023-04-30T02:57:09.613Z,12.88
2023-04-30T02:59:36.331Z,11.65
2023-04-30T03:02:03.074Z,10.10
2023-04-30T03:04:29.788Z,11.48
2023-04-30T03:06:56.610Z,11.98
2023-04-30T03:09:23.245Z,10.85
2023-04-30T03:11:49.993Z,11.60
2023-04-30T03:14:16.603Z,12.02
2023-04-30T03:16:43.420Z,13.85
2023-04-30T03:19:10.201Z,14.25
2023-04-30T03:21:36.940Z,9.68
2023-04-30T03:24:03.697Z,9.65
2023-04-30T03:26:30.474Z,9.05
2023-04-30T03:28:57.144Z,8.10
2023-04-30T03:31:23.945Z,9.43
2023-04-30T03:33:51.007Z,7.82
2023-04-30T03:36:17.712Z,12.48
2023-04-30T03:38:44.392Z,8.25
2023-04-30T03:41:11.045Z,9.68
2023-04-30T03:43:38.176Z,8.63
2023-04-30T03:46:05.189Z,8.55
2023-04-30T03:48:32.121Z,8.13
2023-04-30T03:50:58.804Z,6.75
2023-04-30T03:53:26.655Z,7.63
2023-04-30T03:55:54.703Z,8.95
2023-04-30T03:58:22.125Z,6.55
2023-04-30T04:00:49.092Z,8.43
2023-04-30T04:03:16.372Z,8.60
2023-04-30T04:05:43.107Z,9.60
2023-04-30T04:08:10.485Z,7.47
2023-04-30T04:10:37.803Z,9.95
2023-04-30T04:13:04.515Z,6.45
2023-04-30T04:15:31.229Z,8.50
2023-04-30T04:17:57.883Z,8.60
2023-04-30T04:20:24.528Z,7.07
2023-04-30T04:22:51.323Z,9.43
2023-04-30T04:25:18.245Z,9.73
2023-04-30T04:27:45.102Z,7.70
2023-04-30T04:30:12.225Z,6.30
2023-04-30T04:32:51.755Z,7.70
2023-04-30T04:35:19.361Z,9.85
2023-04-30T04:37:46.064Z,9.88
2023-04-30T04:40:13.735Z,6.65
2023-04-30T04:42:40.536Z,6.00
2023-04-30T04:45:08.128Z,10.02
2023-04-30T04:47:35.098Z,8.57
2023-04-30T04:50:01.832Z,8.35
2023-04-30T04:52:28.583Z,8.85
2023-04-30T04:54:55.452Z,8.18
2023-04-30T04:57:22.139Z,8.50
2023-04-30T04:59:48.888Z,8.63
2023-04-30T05:02:15.535Z,16.05
2023-04-30T05:04:42.120Z,8.73
2023-04-30T05:07:08.924Z,13.80
2023-04-30T05:09:35.676Z,10.07
2023-04-30T05:12:02.415Z,8.82
2023-04-30T05:14:29.180Z,7.95
2023-04-30T05:16:55.884Z,8.55
2023-04-30T05:19:22.586Z,8.18
2023-04-30T05:21:49.185Z,5.80
2023-04-30T05:24:15.875Z,7.88
2023-04-30T05:26:42.588Z,8.65
2023-04-30T05:29:10.584Z,8.93
2023-04-30T05:31:37.644Z,7.75
2023-04-30T05:34:04.287Z,10.88
2023-04-30T05:36:32.120Z,9.38
2023-04-30T05:38:58.774Z,11.50
2023-04-30T05:41:25.759Z,7.97
2023-04-30T05:43:52.485Z,8.57
2023-04-30T05:46:19.443Z,10.75
2023-04-30T05:48:46.329Z,7.22
2023-04-30T05:51:13.011Z,7.30
2023-04-30T05:53:39.869Z,8.90
2023-04-30T05:56:07.142Z,9.23
2023-04-30T05:58:33.823Z,8.05
2023-04-30T06:01:00.544Z,15.60
2023-04-30T06:03:27.189Z,12.10
2023-04-30T06:05:54.722Z,9.40
2023-04-30T06:08:21.547Z,8.43
2023-04-30T06:10:48.574Z,8.90
2023-04-30T06:13:15.469Z,11.15
2023-04-30T06:15:42.105Z,23.30
2023-04-30T06:18:08.736Z,61.33
2023-04-30T06:20:35.319Z,70.35
2023-04-30T06:23:03.929Z,9.75
2023-04-30T06:25:30.816Z,8.57
2023-04-30T06:27:57.417Z,16.25
2023-04-30T06:30:24.153Z,5.60
2023-04-30T06:32:50.808Z,13.85
2023-04-30T06:35:17.694Z,10.60
2023-04-30T06:37:44.380Z,5.15
2023-04-30T06:40:11.329Z,11.77
2023-04-30T06:42:38.689Z,7.85
2023-04-30T06:45:08.754Z,8.10
2023-04-30T06:47:37.881Z,5.93
2023-04-30T06:50:05.363Z,8.07
2023-04-30T06:52:31.984Z,20.75
2023-04-30T06:54:58.618Z,9.88
2023-04-30T06:57:25.883Z,13.07
2023-04-30T06:59:53.040Z,10.25
2023-04-30T07:02:21.902Z,10.02
2023-04-30T07:04:49.459Z,7.93
2023-04-30T07:07:16.419Z,9.10
2023-04-30T07:09:43.071Z,8.20
2023-04-30T07:12:11.337Z,9.77
2023-04-30T07:14:37.985Z,8.60
2023-04-30T07:17:04.784Z,10.27
2023-04-30T07:19:32.602Z,6.22
2023-04-30T07:21:59.573Z,13.73
2023-04-30T07:24:26.383Z,22.10
2023-04-30T07:26:53.053Z,22.90
2023-04-30T07:29:19.901Z,12.63
2023-04-30T07:31:46.534Z,7.47
2023-04-30T07:34:13.875Z,7.53
2023-04-30T07:36:40.705Z,12.13
2023-04-30T07:39:08.151Z,9.05
2023-04-30T07:41:34.933Z,8.18
2023-04-30T07:44:01.653Z,8.13
2023-04-30T07:46:28.540Z,21.08
2023-04-30T07:48:55.503Z,9.93
2023-04-30T07:51:22.558Z,8.68
2023-04-30T07:53:49.410Z,10.77
2023-04-30T07:56:16.167Z,7.53
2023-04-30T07:58:42.854Z,9.90
2023-04-30T08:01:09.589Z,9.10
2023-04-30T08:03:36.682Z,9.85
2023-04-30T08:06:06.047Z,10.70
2023-04-30T08:08:32.788Z,10.77
2023-04-30T08:10:59.619Z,10.95
2023-04-30T08:13:26.404Z,7.68
2023-04-30T08:15:53.065Z,6.90
2023-04-30T08:18:19.693Z,4.57
2023-04-30T08:20:46.418Z,6.90
2023-04-30T08:23:13.125Z,11.73
2023-04-30T08:25:40.257Z,7.07
2023-04-30T08:28:07.332Z,6.68
2023-04-30T08:30:34.056Z,8.88
2023-04-30T08:33:00.862Z,13.02
2023-04-30T08:35:29.756Z,7.47
2023-04-30T08:37:56.518Z,6.63
2023-04-30T08:40:33.736Z,7.80
2023-04-30T08:43:11.962Z,8.57
2023-04-30T08:45:38.827Z,9.00
2023-04-30T08:48:10.848Z,8.45
2023-04-30T08:50:37.580Z,8.27
2023-04-30T08:53:04.323Z,6.82
2023-04-30T08:55:34.059Z,7.88
2023-04-30T08:58:00.806Z,6.75
2023-04-30T09:00:27.795Z,11.23
2023-04-30T09:02:54.748Z,10.00
2023-04-30T09:05:21.479Z,8.50
2023-04-30T09:08:01.556Z,8.57
2023-04-30T09:10:33.798Z,7.25
2023-04-30T09:13:02.524Z,8.13
2023-04-30T09:15:30.391Z,9.02
2023-04-30T09:18:12.410Z,9.88
2023-04-30T09:20:58.442Z,16.52
2023-04-30T09:23:25.852Z,8.75
2023-04-30T09:25:52.646Z,9.23
2023-04-30T09:28:23.716Z,8.05
2023-04-30T09:30:51.471Z,8.13
2023-04-30T09:33:18.371Z,7.65
2023-04-30T09:35:45.162Z,7.68
2023-04-30T09:38:32.203Z,10.65
2023-04-30T09:41:02.403Z,6.57
2023-04-30T09:43:29.664Z,9.32
2023-04-30T09:45:58.909Z,9.07
2023-04-30T09:48:28.069Z,8.95
2023-04-30T09:50:54.930Z,7.38
2023-04-30T09:53:21.689Z,7.78
2023-04-30T09:55:50.885Z,5.93
2023-04-30T09:58:18.769Z,6.72
2023-04-30T10:00:48.300Z,4.95
2023-04-30T10:03:16.056Z,8.05
2023-04-30T10:05:47.395Z,27.30
2023-04-30T10:08:30.043Z,63.70
2023-04-30T10:11:05.408Z,9.40
2023-04-30T10:13:52.879Z,8.73
2023-04-30T10:16:37.832Z,6.25
2023-04-30T10:19:10.528Z,7.93
2023-04-30T10:21:40.793Z,7.75
2023-04-30T10:24:09.710Z,8.38
2023-04-30T10:26:36.728Z,5.15
2023-04-30T10:29:05.773Z,3.47
2023-04-30T10:31:33.320Z,5.68
2023-04-30T10:34:00.023Z,7.20
2023-04-30T10:36:35.702Z,9.90
2023-04-30T10:39:03.494Z,5.45
2023-04-30T10:41:31.762Z,9.40
2023-04-30T10:44:02.208Z,5.78
2023-04-30T10:46:29.300Z,6.20
2023-04-30T10:48:56.225Z,8.35
2023-04-30T10:51:23.523Z,6.38
2023-04-30T10:53:55.879Z,5.72
2023-04-30T10:56:33.584Z,10.65
2023-04-30T10:59:02.421Z,6.07
2023-04-30T11:01:29.645Z,9.23
2023-04-30T11:04:10.152Z,5.63
2023-04-30T11:06:55.943Z,6.13
2023-04-30T11:09:38.823Z,4.65
2023-04-30T11:12:30.489Z,6.55
2023-04-30T11:15:01.798Z,5.93
2023-04-30T11:17:28.962Z,5.75
2023-04-30T11:20:00.928Z,6.32
2023-04-30T11:22:30.210Z,8.30
2023-04-30T11:24:59.806Z,25.55
2023-04-30T11:27:28.642Z,30.70
2023-04-30T11:29:57.033Z,57.22
2023-04-30T11:32:26.860Z,13.55
2023-04-30T11:34:55.063Z,5.55
2023-04-30T11:37:35.148Z,5.88
2023-04-30T11:40:07.831Z,5.38
2023-04-30T11:42:35.252Z,4.90
2023-04-30T11:45:12.372Z,4.78
2023-04-30T11:47:50.443Z,12.93
2023-04-30T11:50:27.618Z,3.63
2023-04-30T11:52:55.557Z,3.75
2023-04-30T11:55:24.349Z,4.57
2023-04-30T11:57:56.734Z,5.10
2023-04-30T12:00:28.144Z,4.82
2023-04-30T12:02:55.945Z,4.90
2023-04-30T12:05:25.076Z,5.90
2023-04-30T12:07:57.110Z,3.53
2023-04-30T12:10:27.961Z,8.23
2023-04-30T12:12:55.511Z,7.07
2023-04-30T12:15:27.070Z,6.38
2023-04-30T12:17:56.021Z,5.90
2023-04-30T12:20:25.468Z,5.85
2023-04-30T12:22:52.695Z,6.32
2023-04-30T12:25:21.615Z,5.47
2023-04-30T12:27:59.803Z,5.75
2023-04-30T12:30:27.751Z,8.25
2023-04-30T12:32:57.941Z,4.28
2023-04-30T12:35:27.764Z,5.03
2023-04-30T12:38:06.482Z,6.15
2023-04-30T12:40:34.005Z,3.58
2023-04-30T12:43:03.735Z,5.72
2023-04-30T12:45:54.565Z,4.65
2023-04-30T12:48:23.811Z,4.32
2023-04-30T12:51:02.823Z,4.30
2023-04-30T12:53:30.033Z,3.53
2023-04-30T12:56:15.403Z,3.92
2023-04-30T12:58:47.697Z,4.00
2023-04-30T13:01:18.440Z,7.88
2023-04-30T13:03:45.390Z,36.00
2023-04-30T13:06:12.410Z,36.67
2023-04-30T13:08:49.858Z,8.85
2023-04-30T13:11:26.282Z,4.38
2023-04-30T13:13:55.733Z,3.90
2023-04-30T13:16:25.019Z,5.05
2023-04-30T13:18:52.343Z,7.97
2023-04-30T13:21:19.033Z,5.13
2023-04-30T13:23:52.998Z,5.13
2023-04-30T13:26:22.199Z,32.17
2023-04-30T13:28:48.945Z,20.45
2023-04-30T13:31:15.872Z,15.52
2023-04-30T13:33:43.068Z,15.63
2023-04-30T13:36:10.216Z,11.32
2023-04-30T13:38:39.324Z,5.30
2023-04-30T13:41:06.859Z,4.13
2023-04-30T13:43:33.614Z,3.90
2023-04-30T13:46:00.558Z,3.17
2023-04-30T13:48:27.624Z,4.15
2023-04-30T13:50:54.774Z,5.32
2023-04-30T13:53:21.755Z,2.20
2023-04-30T13:55:48.596Z,3.45
2023-04-30T13:58:16.230Z,3.38
2023-04-30T14:00:42.958Z,14.10
2023-04-30T14:03:10.292Z,5.50
2023-04-30T14:05:37.756Z,3.40
2023-04-30T14:08:06.950Z,4.35
2023-04-30T14:10:34.090Z,4.40
2023-04-30T14:13:00.956Z,2.83
2023-04-30T14:15:30.768Z,2.17
2023-04-30T14:17:57.976Z,5.32
2023-04-30T14:20:25.662Z,3.22
2023-04-30T14:22:52.365Z,3.08
2023-04-30T14:25:19.241Z,3.42
2023-04-30T14:27:46.434Z,3.65
2023-04-30T14:30:14.138Z,3.22
2023-04-30T14:32:41.249Z,3.40
2023-04-30T14:37:35.897Z,3.58
2023-04-30T14:40:02.977Z,4.35
2023-04-30T14:42:29.779Z,3.45
2023-04-30T14:44:56.560Z,2.75
2023-04-30T14:47:27.387Z,2.40
2023-04-30T14:49:54.337Z,3.65
2023-04-30T14:52:21.237Z,2.47
2023-04-30T14:54:47.972Z,2.25
2023-04-30T14:57:15.095Z,2.30
2023-04-30T14:59:41.993Z,2.72
2023-04-30T15:02:09.232Z,5.32
2023-04-30T15:04:36.017Z,3.95
2023-04-30T15:07:02.686Z,4.70
2023-04-30T15:09:29.315Z,6.25
2023-04-30T15:11:56.060Z,39.17
2023-04-30T15:14:23.298Z,7.93
2023-04-30T15:16:49.971Z,4.32
2023-04-30T15:19:16.753Z,11.10
2023-04-30T15:21:43.498Z,7.57
2023-04-30T15:24:10.113Z,5.18
2023-04-30T15:26:36.917Z,4.25
2023-04-30T15:29:03.590Z,3.58
2023-04-30T15:31:32.520Z,4.00
2023-04-30T15:33:59.458Z,7.43
2023-04-30T15:36:26.557Z,9.32
2023-04-30T15:38:53.237Z,10.02
2023-04-30T15:41:19.865Z,4.38
2023-04-30T15:43:46.451Z,4.35
2023-04-30T15:46:13.717Z,4.47
2023-04-30T15:48:40.456Z,5.32
2023-04-30T15:51:07.205Z,3.58
2023-04-30T15:53:33.897Z,4.03
2023-04-30T15:56:00.627Z,3.78
2023-04-30T15:58:27.215Z,4.38
2023-04-30T16:00:53.916Z,4.57
2023-04-30T16:03:21.254Z,4.95
2023-04-30T16:05:48.128Z,4.45
2023-04-30T16:08:15.108Z,4.25
2023-04-30T16:10:42.163Z,3.90
2023-04-30T16:13:08.793Z,3.97
2023-04-30T16:15:35.593Z,3.83
2023-04-30T16:18:02.989Z,5.45
2023-04-30T16:20:32.078Z,5.03
2023-04-30T16:22:58.966Z,5.45
2023-04-30T16:25:25.610Z,7.35
2023-04-30T16:27:53.002Z,5.57
2023-04-30T16:30:19.704Z,4.38
2023-04-30T16:32:46.327Z,6.53
2023-04-30T16:35:13.091Z,6.38
2023-04-30T16:37:39.757Z,4.82
2023-04-30T16:40:08.213Z,5.47
2023-04-30T16:42:35.258Z,3.95
2023-04-30T16:45:02.373Z,5.10
2023-04-30T16:47:29.191Z,4.95
2023-04-30T16:49:58.440Z,5.88
2023-04-30T16:52:25.418Z,4.35
2023-04-30T16:54:52.006Z,6.38
2023-04-30T16:57:18.748Z,5.43
2023-04-30T16:59:46.622Z,7.85
2023-04-30T17:02:13.364Z,4.45
2023-04-30T17:04:40.061Z,8.40
2023-04-30T17:07:07.436Z,7.10
2023-04-30T17:09:34.271Z,5.85
2023-04-30T17:12:02.240Z,6.13
2023-04-30T17:14:29.062Z,5.45
2023-04-30T17:16:55.866Z,7.07
2023-04-30T17:19:22.624Z,6.78
2023-04-30T17:21:50.836Z,7.78
2023-04-30T17:24:17.512Z,5.47
2023-04-30T17:26:44.126Z,6.38
2023-04-30T17:29:10.824Z,4.13
2023-04-30T17:31:37.490Z,3.03
2023-04-30T17:34:04.162Z,5.85
2023-04-30T17:36:30.778Z,7.55
2023-04-30T17:38:57.576Z,5.60
2023-04-30T17:41:24.340Z,4.93
2023-04-30T17:43:51.725Z,5.10
2023-04-30T17:46:18.435Z,5.85
2023-04-30T17:48:45.167Z,5.38
2023-04-30T17:51:11.916Z,7.40
2023-04-30T17:53:38.619Z,6.40
2023-04-30T17:56:05.701Z,4.97
2023-04-30T17:58:32.642Z,6.95
2023-04-30T18:01:01.596Z,8.73
2023-04-30T18:03:28.697Z,7.40
2023-04-30T18:05:55.559Z,7.72
2023-04-30T18:08:22.213Z,7.68
2023-04-30T18:10:48.882Z,9.85
2023-04-30T18:13:16.061Z,8.35
2023-04-30T18:15:42.764Z,8.63
2023-04-30T18:18:09.878Z,12.52
2023-04-30T18:20:37.016Z,11.85
2023-04-30T18:23:05.235Z,8.27
2023-04-30T18:25:34.309Z,10.07
2023-04-30T18:28:01.296Z,9.77
2023-04-30T18:30:27.908Z,10.23
2023-04-30T18:32:54.644Z,11.30
2023-04-30T18:35:22.157Z,11.18
2023-04-30T18:37:49.284Z,9.75
2023-04-30T18:40:15.989Z,6.95
2023-04-30T18:42:42.620Z,6.13
2023-04-30T18:45:11.338Z,8.85
2023-04-30T18:47:38.130Z,8.50
2023-04-30T18:50:06.476Z,6.93
2023-04-30T18:52:33.386Z,8.98
2023-04-30T18:55:00.003Z,7.63
2023-04-30T18:57:27.128Z,10.27
2023-04-30T18:59:54.794Z,12.27
2023-04-30T19:02:24.437Z,12.30
2023-04-30T19:04:52.278Z,10.48
2023-04-30T19:07:18.938Z,12.05
2023-04-30T19:09:48.246Z,12.57
2023-04-30T19:12:17.876Z,17.85
2023-04-30T19:14:44.665Z,15.80
2023-04-30T19:17:12.546Z,12.60
2023-04-30T19:19:39.308Z,15.05
2023-04-30T19:22:06.395Z,12.57
2023-04-30T19:24:33.084Z,11.18
2023-04-30T19:27:04.063Z,10.80
2023-04-30T19:29:31.368Z,12.10
2023-04-30T19:31:59.352Z,13.00
2023-04-30T19:34:29.188Z,13.55
2023-04-30T19:36:55.855Z,10.43
2023-04-30T19:39:22.957Z,11.38
2023-04-30T19:41:49.882Z,9.32
2023-04-30T19:44:18.264Z,11.13
2023-04-30T19:46:46.557Z,10.02
2023-04-30T19:49:13.131Z,105.82
2023-04-30T19:51:39.870Z,22.73
2023-04-30T19:54:09.430Z,9.88
2023-04-30T19:56:36.324Z,11.15
2023-04-30T19:59:02.966Z,9.35
2023-04-30T20:01:29.627Z,5.90
2023-04-30T20:03:56.458Z,8.48
2023-04-30T20:06:23.460Z,7.82
2023-04-30T20:08:50.084Z,8.43
2023-04-30T20:11:16.758Z,11.40
2023-04-30T20:13:43.366Z,14.63
2023-04-30T20:16:12.447Z,7.88
2023-04-30T20:18:39.317Z,16.25
2023-04-30T20:21:06.085Z,8.75
2023-04-30T20:23:32.737Z,100.32
2023-04-30T20:25:59.409Z,96.20
2023-04-30T20:28:33.359Z,130.77
2023-04-30T20:31:00.064Z,17.15
2023-04-30T20:33:28.721Z,8.45
2023-04-30T20:35:58.044Z,8.32
2023-04-30T20:38:24.921Z,8.30
2023-04-30T20:40:51.682Z,10.45
2023-04-30T20:43:19.254Z,8.50
2023-04-30T20:45:46.352Z,41.67
2023-04-30T20:48:13.405Z,55.92
2023-04-30T20:50:40.999Z,22.48
2023-04-30T20:53:10.229Z,16.65
2023-04-30T20:55:37.786Z,14.63
2023-04-30T20:58:04.396Z,19.65
2023-04-30T21:00:31.112Z,85.53
2023-04-30T21:02:58.100Z,25.83
2023-04-30T21:05:24.912Z,14.18
2023-04-30T21:07:52.528Z,14.05
2023-04-30T21:10:19.252Z,16.98
2023-04-30T21:12:46.119Z,15.32
2023-04-30T21:15:13.112Z,14.18
2023-04-30T21:17:39.891Z,13.80
2023-04-30T21:20:07.270Z,10.88
2023-04-30T21:22:34.274Z,6.90
2023-04-30T21:25:00.955Z,10.35
2023-04-30T21:27:27.981Z,11.35
2023-04-30T21:29:55.036Z,9.45
2023-04-30T21:32:22.076Z,11.65
2023-04-30T21:34:48.784Z,8.48
2023-04-30T21:37:17.439Z,9.52
2023-04-30T21:39:44.275Z,8.75
2023-04-30T21:42:11.011Z,34.58
2023-04-30T21:44:37.937Z,52.40
2023-04-30T21:47:04.565Z,91.13
2023-04-30T21:49:31.347Z,330.33
2023-04-30T21:51:58.154Z,424.67
2023-04-30T21:54:24.962Z,268.05
2023-04-30T21:56:51.657Z,359.80
2023-04-30T21:59:18.294Z,24.88
2023-04-30T22:01:44.943Z,15.98
2023-04-30T22:04:11.647Z,14.52
2023-04-30T22:06:38.432Z,14.15
2023-04-30T22:09:05.133Z,13.90
2023-04-30T22:11:32.003Z,10.75
2023-04-30T22:13:58.900Z,14.48
2023-04-30T22:16:25.592Z,17.02
2023-04-30T22:18:52.172Z,20.15
2023-04-30T22:21:18.831Z,14.50
2023-04-30T22:23:45.604Z,19.77
2023-04-30T22:26:12.225Z,16.90
2023-04-30T22:28:38.947Z,21.88
2023-04-30T22:31:05.667Z,18.33
2023-04-30T22:33:37.000Z,19.55
2023-04-30T22:36:07.309Z,23.98
2023-04-30T22:38:35.281Z,21.67
2023-04-30T22:41:03.677Z,22.73
2023-04-30T22:43:30.821Z,25.27
2023-04-30T22:45:58.851Z,24.25
2023-04-30T22:48:27.073Z,23.40
2023-04-30T22:50:53.949Z,21.23
2023-04-30T22:53:20.907Z,23.27
2023-04-30T22:55:47.687Z,25.02
2023-04-30T22:58:14.406Z,24.40
2023-04-30T23:00:41.254Z,26.60
2023-04-30T23:03:08.265Z,26.52
2023-04-30T23:05:34.983Z,25.80
2023-04-30T23:08:01.666Z,26.25
2023-04-30T23:10:28.308Z,28.67
2023-04-30T23:12:56.398Z,29.98
2023-04-30T23:15:23.224Z,34.33
2023-04-30T23:17:50.147Z,32.58
2023-04-30T23:20:17.074Z,31.98
2023-04-30T23:22:43.802Z,31.33
2023-04-30T23:25:11.733Z,28.02
2023-04-30T23:27:38.468Z,33.38
2023-04-30T23:30:05.793Z,27.98
2023-04-30T23:32:33.411Z,28.20
2023-04-30T23:35:00.406Z,31.58
2023-04-30T23:37:27.694Z,33.35
2023-04-30T23:39:54.614Z,28.70
2023-04-30T23:42:21.926Z,29.33
2023-04-30T23:44:48.596Z,29.88
2023-04-30T23:47:15.241Z,30.95
2023-04-30T23:49:43.607Z,25.55
2023-04-30T23:52:12.550Z,27.30
2023-04-30T23:54:39.194Z,30.30
2023-04-30T23:57:05.845Z,32.95
2023-04-30T23:59:32.665Z,32.30
